sensor_id;sensor_type;location;lat;lon;timestamp;P1;durP1;ratioP1;P2;durP2;ratioP2
49460;SDS011;35355;49.198;-0.368;2023-07-09T00:01:48;4.85;;;2.00;;
49460;SDS011;35355;49.198;-0.368;2023-07-09T00:04:14;7.32;;;1.75;;
49460;SDS011;35355;49.198;-0.368;2023-07-09T00:06:40;3.55;;;2.00;;
49460;SDS011;35355;49.198;-0.368;2023-07-09T00:09:06;10.80;;;2.30;;
49460;SDS011;35355;49.198;-0.368;2023-07-09T00:11:40;4.85;;;2.17;;
49460;SDS011;35355;49.198;-0.368;2023-07-09T00:14:06;7.10;;;2.15;;
49460;SDS011;35355;49.198;-0.368;2023-07-09T00:16:34;6.15;;;2.83;;
49460;SDS011;35355;49.198;-0.368;2023-07-09T00:19:00;10.43;;;3.15;;
49460;SDS011;35355;49.198;-0.368;2023-07-09T00:21:27;5.82;;;2.63;;
49460;SDS011;35355;49.198;-0.368;2023-07-09T00:23:58;7.40;;;2.55;;
49460;SDS011;35355;49.198;-0.368;2023-07-09T00:26:29;6.47;;;2.47;;
49460;SDS011;35355;49.198;-0.368;2023-07-09T00:28:57;8.77;;;2.88;;
49460;SDS011;35355;49.198;-0.368;2023-07-09T00:31:23;6.90;;;2.80;;
49460;SDS011;35355;49.198;-0.368;2023-07-09T00:33:49;6.57;;;2.65;;
49460;SDS011;35355;49.198;-0.368;2023-07-09T00:36:16;7.18;;;2.95;;
49460;SDS011;35355;49.198;-0.368;2023-07-09T00:38:45;8.50;;;2.65;;
49460;SDS011;35355;49.198;-0.368;2023-07-09T00:41:14;6.95;;;2.20;;
49460;SDS011;35355;49.198;-0.368;2023-07-09T00:43:42;5.45;;;2.25;;
49460;SDS011;35355;49.198;-0.368;2023-07-09T00:48:53;3.88;;;2.25;;
49460;SDS011;35355;49.198;-0.368;2023-07-09T00:51:23;5.95;;;2.28;;
49460;SDS011;35355;49.198;-0.368;2023-07-09T00:53:55;8.10;;;2.50;;
49460;SDS011;35355;49.198;-0.368;2023-07-09T00:56:27;7.82;;;3.28;;
49460;SDS011;35355;49.198;-0.368;2023-07-09T00:58:59;9.88;;;2.78;;
49460;SDS011;35355;49.198;-0.368;2023-07-09T01:01:29;8.80;;;2.45;;
49460;SDS011;35355;49.198;-0.368;2023-07-09T01:03:56;6.45;;;1.95;;
49460;SDS011;35355;49.198;-0.368;2023-07-09T01:06:28;5.47;;;2.25;;
49460;SDS011;35355;49.198;-0.368;2023-07-09T01:11:24;6.97;;;2.20;;
49460;SDS011;35355;49.198;-0.368;2023-07-09T01:13:51;10.30;;;3.03;;
49460;SDS011;35355;49.198;-0.368;2023-07-09T01:16:18;13.25;;;2.92;;
49460;SDS011;35355;49.198;-0.368;2023-07-09T01:18:45;13.48;;;2.17;;
49460;SDS011;35355;49.198;-0.368;2023-07-09T01:21:11;13.60;;;2.53;;
49460;SDS011;35355;49.198;-0.368;2023-07-09T01:23:41;19.77;;;3.40;;
49460;SDS011;35355;49.198;-0.368;2023-07-09T01:26:10;10.98;;;2.38;;
49460;SDS011;35355;49.198;-0.368;2023-07-09T01:28:37;12.77;;;2.22;;
49460;SDS011;35355;49.198;-0.368;2023-07-09T01:31:02;17.63;;;2.10;;
49460;SDS011;35355;49.198;-0.368;2023-07-09T01:33:29;16.25;;;2.90;;
49460;SDS011;35355;49.198;-0.368;2023-07-09T01:35:55;10.05;;;1.80;;
49460;SDS011;35355;49.198;-0.368;2023-07-09T01:38:25;14.77;;;1.92;;
49460;SDS011;35355;49.198;-0.368;2023-07-09T01:40:55;18.40;;;2.13;;
49460;SDS011;35355;49.198;-0.368;2023-07-09T01:43:25;17.70;;;2.90;;
49460;SDS011;35355;49.198;-0.368;2023-07-09T01:45:51;10.80;;;2.03;;
49460;SDS011;35355;49.198;-0.368;2023-07-09T01:48:17;11.25;;;1.77;;
49460;SDS011;35355;49.198;-0.368;2023-07-09T01:50:45;12.02;;;2.05;;
49460;SDS011;35355;49.198;-0.368;2023-07-09T01:53:12;11.10;;;1.67;;
49460;SDS011;35355;49.198;-0.368;2023-07-09T01:55:39;6.20;;;1.50;;
49460;SDS011;35355;49.198;-0.368;2023-07-09T01:58:05;10.77;;;1.95;;
49460;SDS011;35355;49.198;-0.368;2023-07-09T02:00:31;11.63;;;1.92;;
49460;SDS011;35355;49.198;-0.368;2023-07-09T02:03:00;13.88;;;2.40;;
49460;SDS011;35355;49.198;-0.368;2023-07-09T02:05:27;12.18;;;1.45;;
49460;SDS011;35355;49.198;-0.368;2023-07-09T02:07:55;12.52;;;1.85;;
49460;SDS011;35355;49.198;-0.368;2023-07-09T02:10:20;7.65;;;1.80;;
49460;SDS011;35355;49.198;-0.368;2023-07-09T02:12:46;7.38;;;1.60;;
49460;SDS011;35355;49.198;-0.368;2023-07-09T02:15:12;10.98;;;1.70;;
49460;SDS011;35355;49.198;-0.368;2023-07-09T02:17:38;10.38;;;1.73;;
49460;SDS011;35355;49.198;-0.368;2023-07-09T02:20:04;8.77;;;1.83;;
49460;SDS011;35355;49.198;-0.368;2023-07-09T02:22:31;9.23;;;2.55;;
49460;SDS011;35355;49.198;-0.368;2023-07-09T02:24:57;10.63;;;1.38;;
49460;SDS011;35355;49.198;-0.368;2023-07-09T02:27:23;12.90;;;1.67;;
49460;SDS011;35355;49.198;-0.368;2023-07-09T02:29:49;9.07;;;1.95;;
49460;SDS011;35355;49.198;-0.368;2023-07-09T02:32:21;9.50;;;1.85;;
49460;SDS011;35355;49.198;-0.368;2023-07-09T02:34:48;13.13;;;1.83;;
49460;SDS011;35355;49.198;-0.368;2023-07-09T02:37:18;12.82;;;2.05;;
49460;SDS011;35355;49.198;-0.368;2023-07-09T02:39:45;12.50;;;1.60;;
49460;SDS011;35355;49.198;-0.368;2023-07-09T02:42:11;9.73;;;1.30;;
49460;SDS011;35355;49.198;-0.368;2023-07-09T02:44:38;8.07;;;1.83;;
49460;SDS011;35355;49.198;-0.368;2023-07-09T02:47:04;9.00;;;1.90;;
49460;SDS011;35355;49.198;-0.368;2023-07-09T02:49:30;12.23;;;1.80;;
49460;SDS011;35355;49.198;-0.368;2023-07-09T02:51:56;7.85;;;1.65;;
49460;SDS011;35355;49.198;-0.368;2023-07-09T02:54:21;10.43;;;0.80;;
49460;SDS011;35355;49.198;-0.368;2023-07-09T02:56:47;8.80;;;1.73;;
49460;SDS011;35355;49.198;-0.368;2023-07-09T02:59:12;7.68;;;1.38;;
49460;SDS011;35355;49.198;-0.368;2023-07-09T03:01:38;10.23;;;1.50;;
49460;SDS011;35355;49.198;-0.368;2023-07-09T03:04:04;9.52;;;1.48;;
49460;SDS011;35355;49.198;-0.368;2023-07-09T03:06:30;8.45;;;2.20;;
49460;SDS011;35355;49.198;-0.368;2023-07-09T03:08:58;10.35;;;2.13;;
49460;SDS011;35355;49.198;-0.368;2023-07-09T03:11:24;8.57;;;1.27;;
49460;SDS011;35355;49.198;-0.368;2023-07-09T03:13:50;6.93;;;1.48;;
49460;SDS011;35355;49.198;-0.368;2023-07-09T03:16:15;7.78;;;1.23;;
49460;SDS011;35355;49.198;-0.368;2023-07-09T03:18:41;5.28;;;0.98;;
49460;SDS011;35355;49.198;-0.368;2023-07-09T03:21:07;9.65;;;1.50;;
49460;SDS011;35355;49.198;-0.368;2023-07-09T03:23:32;7.47;;;1.67;;
49460;SDS011;35355;49.198;-0.368;2023-07-09T03:25:58;8.00;;;1.77;;
49460;SDS011;35355;49.198;-0.368;2023-07-09T03:28:25;13.05;;;2.15;;
49460;SDS011;35355;49.198;-0.368;2023-07-09T03:30:52;11.43;;;2.03;;
49460;SDS011;35355;49.198;-0.368;2023-07-09T03:33:19;7.50;;;1.80;;
49460;SDS011;35355;49.198;-0.368;2023-07-09T03:35:45;9.32;;;1.98;;
49460;SDS011;35355;49.198;-0.368;2023-07-09T03:38:11;10.77;;;1.90;;
49460;SDS011;35355;49.198;-0.368;2023-07-09T03:40:36;8.98;;;1.98;;
49460;SDS011;35355;49.198;-0.368;2023-07-09T03:43:03;14.23;;;2.40;;
49460;SDS011;35355;49.198;-0.368;2023-07-09T03:45:29;11.50;;;1.45;;
49460;SDS011;35355;49.198;-0.368;2023-07-09T03:47:55;10.10;;;1.85;;
49460;SDS011;35355;49.198;-0.368;2023-07-09T03:50:21;8.75;;;1.77;;
49460;SDS011;35355;49.198;-0.368;2023-07-09T03:52:47;9.13;;;1.88;;
49460;SDS011;35355;49.198;-0.368;2023-07-09T03:55:12;5.57;;;1.13;;
49460;SDS011;35355;49.198;-0.368;2023-07-09T03:57:38;10.63;;;1.95;;
49460;SDS011;35355;49.198;-0.368;2023-07-09T04:00:04;8.20;;;1.25;;
49460;SDS011;35355;49.198;-0.368;2023-07-09T04:02:30;13.15;;;1.48;;
49460;SDS011;35355;49.198;-0.368;2023-07-09T04:04:56;10.18;;;1.50;;
49460;SDS011;35355;49.198;-0.368;2023-07-09T04:07:21;10.20;;;2.03;;
49460;SDS011;35355;49.198;-0.368;2023-07-09T04:09:48;10.05;;;1.40;;
49460;SDS011;35355;49.198;-0.368;2023-07-09T04:12:13;11.38;;;2.03;;
49460;SDS011;35355;49.198;-0.368;2023-07-09T04:14:39;11.75;;;1.70;;
49460;SDS011;35355;49.198;-0.368;2023-07-09T04:17:05;5.20;;;1.23;;
49460;SDS011;35355;49.198;-0.368;2023-07-09T04:19:31;11.52;;;1.60;;
49460;SDS011;35355;49.198;-0.368;2023-07-09T04:21:56;4.22;;;1.17;;
49460;SDS011;35355;49.198;-0.368;2023-07-09T04:24:22;11.98;;;2.15;;
49460;SDS011;35355;49.198;-0.368;2023-07-09T04:26:47;9.65;;;1.55;;
49460;SDS011;35355;49.198;-0.368;2023-07-09T04:29:13;13.13;;;2.22;;
49460;SDS011;35355;49.198;-0.368;2023-07-09T04:31:39;12.02;;;1.40;;
49460;SDS011;35355;49.198;-0.368;2023-07-09T04:34:05;6.45;;;1.90;;
49460;SDS011;35355;49.198;-0.368;2023-07-09T04:36:31;10.07;;;1.85;;
49460;SDS011;35355;49.198;-0.368;2023-07-09T04:38:56;7.00;;;1.30;;
49460;SDS011;35355;49.198;-0.368;2023-07-09T04:41:22;8.02;;;1.55;;
49460;SDS011;35355;49.198;-0.368;2023-07-09T04:43:48;12.75;;;2.35;;
49460;SDS011;35355;49.198;-0.368;2023-07-09T04:46:13;13.23;;;2.13;;
49460;SDS011;35355;49.198;-0.368;2023-07-09T04:48:39;17.17;;;2.53;;
49460;SDS011;35355;49.198;-0.368;2023-07-09T04:51:04;7.63;;;1.95;;
49460;SDS011;35355;49.198;-0.368;2023-07-09T04:53:30;12.93;;;2.13;;
49460;SDS011;35355;49.198;-0.368;2023-07-09T04:55:56;10.95;;;1.48;;
49460;SDS011;35355;49.198;-0.368;2023-07-09T04:58:22;9.90;;;2.00;;
49460;SDS011;35355;49.198;-0.368;2023-07-09T05:00:47;7.93;;;1.48;;
49460;SDS011;35355;49.198;-0.368;2023-07-09T05:03:15;8.48;;;1.05;;
49460;SDS011;35355;49.198;-0.368;2023-07-09T05:05:44;8.40;;;1.40;;
49460;SDS011;35355;49.198;-0.368;2023-07-09T05:08:11;5.07;;;1.48;;
49460;SDS011;35355;49.198;-0.368;2023-07-09T05:10:46;11.80;;;1.50;;
49460;SDS011;35355;49.198;-0.368;2023-07-09T05:13:15;6.97;;;1.05;;
49460;SDS011;35355;49.198;-0.368;2023-07-09T05:15:43;13.32;;;1.58;;
49460;SDS011;35355;49.198;-0.368;2023-07-09T05:18:10;9.75;;;1.40;;
49460;SDS011;35355;49.198;-0.368;2023-07-09T05:20:36;7.25;;;1.48;;
49460;SDS011;35355;49.198;-0.368;2023-07-09T05:23:03;5.53;;;1.40;;
49460;SDS011;35355;49.198;-0.368;2023-07-09T05:25:28;6.95;;;1.80;;
49460;SDS011;35355;49.198;-0.368;2023-07-09T05:27:54;7.93;;;2.20;;
49460;SDS011;35355;49.198;-0.368;2023-07-09T05:30:19;8.35;;;1.92;;
49460;SDS011;35355;49.198;-0.368;2023-07-09T05:32:45;8.68;;;1.80;;
49460;SDS011;35355;49.198;-0.368;2023-07-09T05:35:11;6.80;;;1.58;;
49460;SDS011;35355;49.198;-0.368;2023-07-09T05:37:37;14.73;;;2.40;;
49460;SDS011;35355;49.198;-0.368;2023-07-09T05:40:04;7.60;;;1.35;;
49460;SDS011;35355;49.198;-0.368;2023-07-09T05:42:31;6.35;;;1.40;;
49460;SDS011;35355;49.198;-0.368;2023-07-09T05:44:56;7.47;;;1.73;;
49460;SDS011;35355;49.198;-0.368;2023-07-09T05:47:22;7.32;;;1.67;;
49460;SDS011;35355;49.198;-0.368;2023-07-09T05:49:48;13.93;;;1.85;;
49460;SDS011;35355;49.198;-0.368;2023-07-09T05:52:15;12.55;;;2.25;;
49460;SDS011;35355;49.198;-0.368;2023-07-09T05:54:45;9.52;;;1.80;;
49460;SDS011;35355;49.198;-0.368;2023-07-09T05:57:11;4.20;;;1.45;;
49460;SDS011;35355;49.198;-0.368;2023-07-09T05:59:37;6.15;;;2.10;;
49460;SDS011;35355;49.198;-0.368;2023-07-09T06:02:02;7.43;;;1.60;;
49460;SDS011;35355;49.198;-0.368;2023-07-09T06:04:28;7.20;;;1.83;;
49460;SDS011;35355;49.198;-0.368;2023-07-09T06:06:56;10.05;;;1.95;;
49460;SDS011;35355;49.198;-0.368;2023-07-09T06:09:22;8.20;;;1.58;;
49460;SDS011;35355;49.198;-0.368;2023-07-09T06:11:48;10.73;;;1.73;;
49460;SDS011;35355;49.198;-0.368;2023-07-09T06:14:13;8.60;;;1.77;;
49460;SDS011;35355;49.198;-0.368;2023-07-09T06:16:39;13.98;;;2.42;;
49460;SDS011;35355;49.198;-0.368;2023-07-09T06:19:04;12.90;;;2.10;;
49460;SDS011;35355;49.198;-0.368;2023-07-09T06:21:30;11.23;;;2.38;;
49460;SDS011;35355;49.198;-0.368;2023-07-09T06:23:55;7.00;;;2.15;;
49460;SDS011;35355;49.198;-0.368;2023-07-09T06:26:20;9.80;;;2.05;;
49460;SDS011;35355;49.198;-0.368;2023-07-09T06:28:46;9.10;;;1.63;;
49460;SDS011;35355;49.198;-0.368;2023-07-09T06:31:11;26.15;;;3.85;;
49460;SDS011;35355;49.198;-0.368;2023-07-09T06:33:37;12.80;;;2.45;;
49460;SDS011;35355;49.198;-0.368;2023-07-09T06:36:02;7.15;;;1.30;;
49460;SDS011;35355;49.198;-0.368;2023-07-09T06:38:29;11.50;;;1.70;;
49460;SDS011;35355;49.198;-0.368;2023-07-09T06:40:55;15.88;;;2.28;;
49460;SDS011;35355;49.198;-0.368;2023-07-09T06:43:22;12.07;;;2.20;;
49460;SDS011;35355;49.198;-0.368;2023-07-09T06:45:48;15.20;;;2.47;;
49460;SDS011;35355;49.198;-0.368;2023-07-09T06:48:14;10.52;;;2.40;;
49460;SDS011;35355;49.198;-0.368;2023-07-09T06:50:40;10.57;;;3.17;;
49460;SDS011;35355;49.198;-0.368;2023-07-09T06:53:05;10.73;;;2.28;;
49460;SDS011;35355;49.198;-0.368;2023-07-09T06:55:30;17.17;;;2.50;;
49460;SDS011;35355;49.198;-0.368;2023-07-09T06:57:56;14.32;;;2.60;;
49460;SDS011;35355;49.198;-0.368;2023-07-09T07:00:21;12.10;;;2.33;;
49460;SDS011;35355;49.198;-0.368;2023-07-09T07:02:47;12.65;;;2.33;;
49460;SDS011;35355;49.198;-0.368;2023-07-09T07:05:12;13.98;;;2.50;;
49460;SDS011;35355;49.198;-0.368;2023-07-09T07:07:38;9.20;;;2.33;;
49460;SDS011;35355;49.198;-0.368;2023-07-09T07:10:03;10.15;;;2.47;;
49460;SDS011;35355;49.198;-0.368;2023-07-09T07:12:40;10.80;;;1.65;;
49460;SDS011;35355;49.198;-0.368;2023-07-09T07:15:07;10.73;;;2.17;;
49460;SDS011;35355;49.198;-0.368;2023-07-09T07:17:33;9.30;;;1.92;;
49460;SDS011;35355;49.198;-0.368;2023-07-09T07:19:58;13.15;;;2.55;;
49460;SDS011;35355;49.198;-0.368;2023-07-09T07:22:24;13.75;;;3.45;;
49460;SDS011;35355;49.198;-0.368;2023-07-09T07:24:49;5.75;;;1.35;;
49460;SDS011;35355;49.198;-0.368;2023-07-09T07:27:14;7.55;;;2.00;;
49460;SDS011;35355;49.198;-0.368;2023-07-09T07:29:40;15.63;;;2.42;;
49460;SDS011;35355;49.198;-0.368;2023-07-09T07:32:05;11.40;;;2.30;;
49460;SDS011;35355;49.198;-0.368;2023-07-09T07:34:31;13.20;;;2.67;;
49460;SDS011;35355;49.198;-0.368;2023-07-09T07:36:58;11.38;;;2.42;;
49460;SDS011;35355;49.198;-0.368;2023-07-09T07:39:25;10.48;;;2.58;;
49460;SDS011;35355;49.198;-0.368;2023-07-09T07:41:51;6.70;;;1.75;;
49460;SDS011;35355;49.198;-0.368;2023-07-09T07:44:16;13.10;;;2.60;;
49460;SDS011;35355;49.198;-0.368;2023-07-09T07:46:42;4.78;;;1.45;;
49460;SDS011;35355;49.198;-0.368;2023-07-09T07:49:08;8.95;;;1.67;;
49460;SDS011;35355;49.198;-0.368;2023-07-09T07:51:33;9.40;;;1.65;;
49460;SDS011;35355;49.198;-0.368;2023-07-09T07:53:59;5.28;;;1.35;;
49460;SDS011;35355;49.198;-0.368;2023-07-09T07:56:24;3.67;;;1.38;;
49460;SDS011;35355;49.198;-0.368;2023-07-09T07:58:51;11.90;;;2.40;;
49460;SDS011;35355;49.198;-0.368;2023-07-09T08:01:16;8.85;;;2.17;;
49460;SDS011;35355;49.198;-0.368;2023-07-09T08:03:42;9.85;;;1.67;;
49460;SDS011;35355;49.198;-0.368;2023-07-09T08:06:07;10.45;;;2.25;;
49460;SDS011;35355;49.198;-0.368;2023-07-09T08:08:33;11.65;;;2.65;;
49460;SDS011;35355;49.198;-0.368;2023-07-09T08:10:59;8.70;;;2.22;;
49460;SDS011;35355;49.198;-0.368;2023-07-09T08:13:29;8.68;;;2.20;;
49460;SDS011;35355;49.198;-0.368;2023-07-09T08:15:57;6.60;;;1.85;;
49460;SDS011;35355;49.198;-0.368;2023-07-09T08:18:22;5.05;;;1.35;;
49460;SDS011;35355;49.198;-0.368;2023-07-09T08:20:48;8.65;;;1.42;;
49460;SDS011;35355;49.198;-0.368;2023-07-09T08:23:13;7.82;;;1.88;;
49460;SDS011;35355;49.198;-0.368;2023-07-09T08:25:38;6.47;;;1.73;;
49460;SDS011;35355;49.198;-0.368;2023-07-09T08:28:04;11.25;;;1.83;;
49460;SDS011;35355;49.198;-0.368;2023-07-09T08:30:29;9.27;;;1.88;;
49460;SDS011;35355;49.198;-0.368;2023-07-09T08:32:55;10.35;;;2.85;;
49460;SDS011;35355;49.198;-0.368;2023-07-09T08:35:22;10.20;;;1.73;;
49460;SDS011;35355;49.198;-0.368;2023-07-09T08:37:47;9.82;;;2.45;;
49460;SDS011;35355;49.198;-0.368;2023-07-09T08:40:13;6.18;;;1.52;;
49460;SDS011;35355;49.198;-0.368;2023-07-09T08:42:43;5.75;;;1.13;;
49460;SDS011;35355;49.198;-0.368;2023-07-09T08:50:32;6.95;;;1.73;;
49460;SDS011;35355;49.198;-0.368;2023-07-09T08:53:03;12.40;;;2.80;;
49460;SDS011;35355;49.198;-0.368;2023-07-09T08:55:31;17.02;;;3.28;;
49460;SDS011;35355;49.198;-0.368;2023-07-09T08:58:09;7.10;;;1.80;;
49460;SDS011;35355;49.198;-0.368;2023-07-09T09:00:41;9.98;;;2.22;;
49460;SDS011;35355;49.198;-0.368;2023-07-09T09:03:14;9.18;;;2.28;;
49460;SDS011;35355;49.198;-0.368;2023-07-09T09:05:53;8.93;;;1.77;;
49460;SDS011;35355;49.198;-0.368;2023-07-09T09:11:04;6.45;;;2.33;;
49460;SDS011;35355;49.198;-0.368;2023-07-09T09:13:37;12.65;;;3.08;;
49460;SDS011;35355;49.198;-0.368;2023-07-09T09:16:04;8.88;;;2.85;;
49460;SDS011;35355;49.198;-0.368;2023-07-09T09:18:42;12.52;;;2.58;;
49460;SDS011;35355;49.198;-0.368;2023-07-09T09:24:01;9.82;;;2.05;;
49460;SDS011;35355;49.198;-0.368;2023-07-09T09:26:38;6.50;;;2.35;;
49460;SDS011;35355;49.198;-0.368;2023-07-09T09:29:13;6.97;;;2.28;;
49460;SDS011;35355;49.198;-0.368;2023-07-09T09:31:42;12.82;;;3.05;;
49460;SDS011;35355;49.198;-0.368;2023-07-09T09:34:19;10.63;;;2.05;;
49460;SDS011;35355;49.198;-0.368;2023-07-09T09:36:46;7.75;;;1.98;;
49460;SDS011;35355;49.198;-0.368;2023-07-09T09:39:12;9.10;;;1.98;;
49460;SDS011;35355;49.198;-0.368;2023-07-09T09:41:38;5.72;;;2.03;;
49460;SDS011;35355;49.198;-0.368;2023-07-09T09:44:05;7.70;;;2.20;;
49460;SDS011;35355;49.198;-0.368;2023-07-09T09:46:42;8.02;;;2.08;;
49460;SDS011;35355;49.198;-0.368;2023-07-09T09:49:13;8.05;;;1.90;;
49460;SDS011;35355;49.198;-0.368;2023-07-09T09:51:40;12.18;;;2.00;;
49460;SDS011;35355;49.198;-0.368;2023-07-09T09:54:11;8.38;;;1.90;;
49460;SDS011;35355;49.198;-0.368;2023-07-09T09:56:42;7.03;;;1.85;;
49460;SDS011;35355;49.198;-0.368;2023-07-09T09:59:18;6.43;;;1.42;;
49460;SDS011;35355;49.198;-0.368;2023-07-09T10:01:46;5.05;;;1.55;;
49460;SDS011;35355;49.198;-0.368;2023-07-09T10:04:17;6.22;;;1.23;;
49460;SDS011;35355;49.198;-0.368;2023-07-09T10:06:46;4.18;;;1.10;;
49460;SDS011;35355;49.198;-0.368;2023-07-09T10:12:57;3.13;;;0.95;;
49460;SDS011;35355;49.198;-0.368;2023-07-09T10:25:47;3.92;;;1.02;;
49460;SDS011;35355;49.198;-0.368;2023-07-09T10:28:32;5.75;;;0.88;;
49460;SDS011;35355;49.198;-0.368;2023-07-09T10:31:12;3.45;;;0.63;;
49460;SDS011;35355;49.198;-0.368;2023-07-09T10:36:48;2.95;;;0.82;;
49460;SDS011;35355;49.198;-0.368;2023-07-09T10:39:40;4.85;;;1.00;;
49460;SDS011;35355;49.198;-0.368;2023-07-09T10:42:26;6.60;;;0.75;;
49460;SDS011;35355;49.198;-0.368;2023-07-09T10:45:00;6.38;;;1.20;;
49460;SDS011;35355;49.198;-0.368;2023-07-09T10:47:30;5.93;;;1.77;;
49460;SDS011;35355;49.198;-0.368;2023-07-09T10:50:04;5.88;;;1.10;;
49460;SDS011;35355;49.198;-0.368;2023-07-09T10:52:36;2.85;;;1.00;;
49460;SDS011;35355;49.198;-0.368;2023-07-09T10:58:22;5.90;;;1.30;;
49460;SDS011;35355;49.198;-0.368;2023-07-09T11:01:13;4.15;;;1.55;;
49460;SDS011;35355;49.198;-0.368;2023-07-09T11:03:43;6.45;;;1.80;;
49460;SDS011;35355;49.198;-0.368;2023-07-09T11:09:29;5.72;;;1.08;;
49460;SDS011;35355;49.198;-0.368;2023-07-09T11:11:59;5.82;;;1.45;;
49460;SDS011;35355;49.198;-0.368;2023-07-09T11:14:58;8.25;;;1.98;;
49460;SDS011;35355;49.198;-0.368;2023-07-09T11:17:28;7.68;;;2.00;;
49460;SDS011;35355;49.198;-0.368;2023-07-09T11:19:55;7.22;;;2.53;;
49460;SDS011;35355;49.198;-0.368;2023-07-09T11:22:25;6.18;;;1.50;;
49460;SDS011;35355;49.198;-0.368;2023-07-09T11:25:13;7.75;;;1.45;;
49460;SDS011;35355;49.198;-0.368;2023-07-09T11:27:50;5.10;;;1.45;;
49460;SDS011;35355;49.198;-0.368;2023-07-09T11:30:27;4.53;;;1.08;;
49460;SDS011;35355;49.198;-0.368;2023-07-09T11:32:56;6.93;;;1.10;;
49460;SDS011;35355;49.198;-0.368;2023-07-09T11:35:24;4.00;;;1.15;;
49460;SDS011;35355;49.198;-0.368;2023-07-09T11:37:52;5.25;;;1.30;;
49460;SDS011;35355;49.198;-0.368;2023-07-09T11:40:18;7.78;;;1.23;;
49460;SDS011;35355;49.198;-0.368;2023-07-09T11:42:52;4.18;;;1.58;;
49460;SDS011;35355;49.198;-0.368;2023-07-09T11:45:28;4.18;;;1.10;;
49460;SDS011;35355;49.198;-0.368;2023-07-09T11:51:00;6.90;;;1.58;;
49460;SDS011;35355;49.198;-0.368;2023-07-09T11:53:35;4.38;;;1.20;;
49460;SDS011;35355;49.198;-0.368;2023-07-09T11:56:07;4.57;;;1.15;;
49460;SDS011;35355;49.198;-0.368;2023-07-09T11:58:34;6.03;;;1.48;;
49460;SDS011;35355;49.198;-0.368;2023-07-09T12:01:00;4.40;;;1.50;;
49460;SDS011;35355;49.198;-0.368;2023-07-09T12:03:34;7.45;;;1.50;;
49460;SDS011;35355;49.198;-0.368;2023-07-09T12:06:26;3.53;;;1.27;;
49460;SDS011;35355;49.198;-0.368;2023-07-09T12:08:54;5.40;;;0.80;;
49460;SDS011;35355;49.198;-0.368;2023-07-09T12:11:28;2.83;;;1.25;;
49460;SDS011;35355;49.198;-0.368;2023-07-09T12:14:02;6.05;;;1.17;;
49460;SDS011;35355;49.198;-0.368;2023-07-09T12:18:56;4.30;;;0.80;;
49460;SDS011;35355;49.198;-0.368;2023-07-09T12:21:22;5.80;;;0.90;;
49460;SDS011;35355;49.198;-0.368;2023-07-09T12:23:50;4.03;;;0.98;;
49460;SDS011;35355;49.198;-0.368;2023-07-09T12:26:17;4.53;;;0.80;;
49460;SDS011;35355;49.198;-0.368;2023-07-09T12:28:50;2.35;;;0.65;;
49460;SDS011;35355;49.198;-0.368;2023-07-09T12:31:28;4.68;;;0.93;;
49460;SDS011;35355;49.198;-0.368;2023-07-09T12:33:56;2.08;;;0.70;;
49460;SDS011;35355;49.198;-0.368;2023-07-09T12:36:23;2.65;;;1.00;;
49460;SDS011;35355;49.198;-0.368;2023-07-09T12:38:50;5.38;;;1.00;;
49460;SDS011;35355;49.198;-0.368;2023-07-09T12:41:25;3.42;;;0.70;;
49460;SDS011;35355;49.198;-0.368;2023-07-09T12:43:54;1.88;;;0.93;;
49460;SDS011;35355;49.198;-0.368;2023-07-09T12:46:23;5.65;;;1.05;;
49460;SDS011;35355;49.198;-0.368;2023-07-09T12:48:50;4.72;;;0.98;;
49460;SDS011;35355;49.198;-0.368;2023-07-09T12:51:20;4.00;;;0.82;;
49460;SDS011;35355;49.198;-0.368;2023-07-09T12:53:59;4.93;;;1.52;;
49460;SDS011;35355;49.198;-0.368;2023-07-09T12:56:33;4.77;;;1.00;;
49460;SDS011;35355;49.198;-0.368;2023-07-09T12:59:00;4.55;;;0.80;;
49460;SDS011;35355;49.198;-0.368;2023-07-09T13:01:38;5.43;;;1.10;;
49460;SDS011;35355;49.198;-0.368;2023-07-09T13:04:04;4.78;;;0.82;;
49460;SDS011;35355;49.198;-0.368;2023-07-09T13:06:34;2.80;;;1.67;;
49460;SDS011;35355;49.198;-0.368;2023-07-09T13:09:01;3.78;;;0.82;;
49460;SDS011;35355;49.198;-0.368;2023-07-09T13:11:36;5.40;;;0.90;;
49460;SDS011;35355;49.198;-0.368;2023-07-09T13:14:03;3.72;;;0.75;;
49460;SDS011;35355;49.198;-0.368;2023-07-09T13:16:30;3.15;;;0.60;;
49460;SDS011;35355;49.198;-0.368;2023-07-09T13:19:02;4.35;;;1.50;;
49460;SDS011;35355;49.198;-0.368;2023-07-09T13:21:28;6.00;;;0.77;;
49460;SDS011;35355;49.198;-0.368;2023-07-09T13:23:53;5.03;;;1.13;;
49460;SDS011;35355;49.198;-0.368;2023-07-09T13:26:20;2.17;;;0.50;;
49460;SDS011;35355;49.198;-0.368;2023-07-09T13:28:45;1.58;;;0.50;;
49460;SDS011;35355;49.198;-0.368;2023-07-09T13:31:19;5.78;;;1.02;;
49460;SDS011;35355;49.198;-0.368;2023-07-09T13:33:55;3.35;;;0.65;;
49460;SDS011;35355;49.198;-0.368;2023-07-09T13:36:23;5.07;;;0.60;;
49460;SDS011;35355;49.198;-0.368;2023-07-09T13:38:49;7.30;;;1.55;;
49460;SDS011;35355;49.198;-0.368;2023-07-09T13:41:17;2.78;;;0.60;;
49460;SDS011;35355;49.198;-0.368;2023-07-09T13:43:47;5.32;;;0.77;;
49460;SDS011;35355;49.198;-0.368;2023-07-09T13:46:13;3.55;;;0.50;;
49460;SDS011;35355;49.198;-0.368;2023-07-09T13:48:40;5.65;;;0.70;;
49460;SDS011;35355;49.198;-0.368;2023-07-09T13:53:38;4.07;;;1.08;;
49460;SDS011;35355;49.198;-0.368;2023-07-09T13:56:04;2.95;;;0.70;;
49460;SDS011;35355;49.198;-0.368;2023-07-09T13:58:29;3.80;;;0.77;;
49460;SDS011;35355;49.198;-0.368;2023-07-09T14:00:57;3.80;;;0.90;;
49460;SDS011;35355;49.198;-0.368;2023-07-09T14:03:30;7.93;;;1.27;;
49460;SDS011;35355;49.198;-0.368;2023-07-09T14:05:58;7.07;;;1.10;;
49460;SDS011;35355;49.198;-0.368;2023-07-09T14:08:23;2.65;;;1.10;;
49460;SDS011;35355;49.198;-0.368;2023-07-09T14:10:49;2.50;;;0.70;;
49460;SDS011;35355;49.198;-0.368;2023-07-09T14:13:20;6.15;;;0.80;;
49460;SDS011;35355;49.198;-0.368;2023-07-09T14:15:48;6.22;;;1.15;;
49460;SDS011;35355;49.198;-0.368;2023-07-09T14:18:19;6.10;;;0.60;;
49460;SDS011;35355;49.198;-0.368;2023-07-09T14:20:46;3.25;;;0.45;;
49460;SDS011;35355;49.198;-0.368;2023-07-09T14:23:12;5.03;;;0.63;;
49460;SDS011;35355;49.198;-0.368;2023-07-09T14:25:43;2.63;;;0.77;;
49460;SDS011;35355;49.198;-0.368;2023-07-09T14:28:17;5.32;;;0.80;;
49460;SDS011;35355;49.198;-0.368;2023-07-09T14:30:44;6.38;;;1.10;;
49460;SDS011;35355;49.198;-0.368;2023-07-09T14:33:17;4.07;;;0.70;;
49460;SDS011;35355;49.198;-0.368;2023-07-09T14:35:44;5.40;;;0.80;;
49460;SDS011;35355;49.198;-0.368;2023-07-09T14:38:16;4.07;;;0.90;;
49460;SDS011;35355;49.198;-0.368;2023-07-09T14:40:48;3.55;;;1.42;;
49460;SDS011;35355;49.198;-0.368;2023-07-09T14:43:15;3.00;;;0.73;;
49460;SDS011;35355;49.198;-0.368;2023-07-09T14:45:41;5.65;;;0.90;;
49460;SDS011;35355;49.198;-0.368;2023-07-09T14:48:11;7.20;;;1.25;;
49460;SDS011;35355;49.198;-0.368;2023-07-09T14:50:44;4.07;;;0.80;;
49460;SDS011;35355;49.198;-0.368;2023-07-09T14:53:13;7.43;;;1.48;;
49460;SDS011;35355;49.198;-0.368;2023-07-09T14:55:52;3.95;;;0.60;;
49460;SDS011;35355;49.198;-0.368;2023-07-09T14:58:19;3.92;;;0.93;;
49460;SDS011;35355;49.198;-0.368;2023-07-09T15:00:46;4.93;;;0.82;;
49460;SDS011;35355;49.198;-0.368;2023-07-09T15:03:14;4.50;;;0.60;;
49460;SDS011;35355;49.198;-0.368;2023-07-09T15:05:49;4.00;;;0.52;;
49460;SDS011;35355;49.198;-0.368;2023-07-09T15:08:19;2.88;;;0.77;;
49460;SDS011;35355;49.198;-0.368;2023-07-09T15:10:47;7.03;;;0.75;;
49460;SDS011;35355;49.198;-0.368;2023-07-09T15:15:52;4.65;;;0.52;;
49460;SDS011;35355;49.198;-0.368;2023-07-09T15:18:18;3.83;;;0.65;;
49460;SDS011;35355;49.198;-0.368;2023-07-09T15:20:47;6.15;;;0.70;;
49460;SDS011;35355;49.198;-0.368;2023-07-09T15:23:15;2.30;;;0.55;;
49460;SDS011;35355;49.198;-0.368;2023-07-09T15:25:41;2.10;;;0.63;;
49460;SDS011;35355;49.198;-0.368;2023-07-09T15:28:09;4.72;;;1.17;;